sensor_id;sensor_type;location;lat;lon;timestamp;temperature;humidity
8939;DHT22;4504;48.810;9.172;2022-08-01T00:01:16;24.20;59.50
8939;DHT22;4504;48.810;9.172;2022-08-01T00:03:43;24.20;59.60
8939;DHT22;4504;48.810;9.172;2022-08-01T00:06:10;24.20;59.80
8939;DHT22;4504;48.810;9.172;2022-08-01T00:08:37;24.10;59.90
8939;DHT22;4504;48.810;9.172;2022-08-01T00:11:05;24.00;60.10
8939;DHT22;4504;48.810;9.172;2022-08-01T00:13:34;23.90;60.30
8939;DHT22;4504;48.810;9.172;2022-08-01T00:16:02;24.00;60.60
8939;DHT22;4504;48.810;9.172;2022-08-01T00:18:29;24.00;60.70
8939;DHT22;4504;48.810;9.172;2022-08-01T00:20:56;24.00;60.70
8939;DHT22;4504;48.810;9.172;2022-08-01T00:23:23;24.00;60.70
8939;DHT22;4504;48.810;9.172;2022-08-01T00:25:50;24.00;61.70
8939;DHT22;4504;48.810;9.172;2022-08-01T00:28:18;24.00;60.70
8939;DHT22;4504;48.810;9.172;2022-08-01T00:30:45;24.10;60.90
8939;DHT22;4504;48.810;9.172;2022-08-01T00:33:12;24.00;60.80
8939;DHT22;4504;48.810;9.172;2022-08-01T00:35:39;24.00;60.90
8939;DHT22;4504;48.810;9.172;2022-08-01T00:38:06;24.00;61.00
8939;DHT22;4504;48.810;9.172;2022-08-01T00:40:33;24.00;61.20
8939;DHT22;4504;48.810;9.172;2022-08-01T00:43:00;24.00;61.50
8939;DHT22;4504;48.810;9.172;2022-08-01T00:45:29;23.90;61.70
8939;DHT22;4504;48.810;9.172;2022-08-01T00:47:56;23.80;61.90
8939;DHT22;4504;48.810;9.172;2022-08-01T00:50:23;23.70;62.10
8939;DHT22;4504;48.810;9.172;2022-08-01T00:52:50;23.80;62.50
8939;DHT22;4504;48.810;9.172;2022-08-01T00:55:18;23.80;62.60
8939;DHT22;4504;48.810;9.172;2022-08-01T00:57:47;23.70;62.70
8939;DHT22;4504;48.810;9.172;2022-08-01T01:00:15;23.70;63.10
8939;DHT22;4504;48.810;9.172;2022-08-01T01:02:43;23.70;63.40
8939;DHT22;4504;48.810;9.172;2022-08-01T01:05:10;23.60;63.60
8939;DHT22;4504;48.810;9.172;2022-08-01T01:07:46;23.60;64.00
8939;DHT22;4504;48.810;9.172;2022-08-01T01:10:17;23.60;64.20
8939;DHT22;4504;48.810;9.172;2022-08-01T01:12:51;23.60;64.30
8939;DHT22;4504;48.810;9.172;2022-08-01T01:15:23;23.60;64.60
8939;DHT22;4504;48.810;9.172;2022-08-01T01:17:57;23.60;65.00
8939;DHT22;4504;48.810;9.172;2022-08-01T01:20:28;23.50;65.00
8939;DHT22;4504;48.810;9.172;2022-08-01T01:23:07;23.60;65.30
8939;DHT22;4504;48.810;9.172;2022-08-01T01:25:50;23.50;65.40
8939;DHT22;4504;48.810;9.172;2022-08-01T01:28:27;23.60;65.90
8939;DHT22;4504;48.810;9.172;2022-08-01T01:30:58;23.50;65.90
8939;DHT22;4504;48.810;9.172;2022-08-01T01:33:27;23.50;66.20
8939;DHT22;4504;48.810;9.172;2022-08-01T01:36:02;23.40;66.70
8939;DHT22;4504;48.810;9.172;2022-08-01T01:38:34;23.40;67.10
8939;DHT22;4504;48.810;9.172;2022-08-01T01:41:03;23.40;67.30
8939;DHT22;4504;48.810;9.172;2022-08-01T01:43:32;23.40;67.50
8939;DHT22;4504;48.810;9.172;2022-08-01T01:46:02;23.30;68.00
8939;DHT22;4504;48.810;9.172;2022-08-01T01:48:31;23.30;68.20
8939;DHT22;4504;48.810;9.172;2022-08-01T01:50:59;23.20;68.90
8939;DHT22;4504;48.810;9.172;2022-08-01T01:53:28;23.20;69.20
8939;DHT22;4504;48.810;9.172;2022-08-01T01:55:57;23.20;69.40
8939;DHT22;4504;48.810;9.172;2022-08-01T01:58:26;23.20;69.40
8939;DHT22;4504;48.810;9.172;2022-08-01T02:00:56;23.20;69.80
8939;DHT22;4504;48.810;9.172;2022-08-01T02:03:27;23.20;69.70
8939;DHT22;4504;48.810;9.172;2022-08-01T02:05:55;23.00;70.30
8939;DHT22;4504;48.810;9.172;2022-08-01T02:08:23;23.20;70.50
8939;DHT22;4504;48.810;9.172;2022-08-01T02:10:52;23.20;70.50
8939;DHT22;4504;48.810;9.172;2022-08-01T02:13:36;23.20;70.50
8939;DHT22;4504;48.810;9.172;2022-08-01T02:16:05;23.20;70.50
8939;DHT22;4504;48.810;9.172;2022-08-01T02:18:33;23.20;70.80
8939;DHT22;4504;48.810;9.172;2022-08-01T02:21:04;23.20;70.90
8939;DHT22;4504;48.810;9.172;2022-08-01T02:23:34;23.10;71.20
8939;DHT22;4504;48.810;9.172;2022-08-01T02:26:08;22.90;71.50
8939;DHT22;4504;48.810;9.172;2022-08-01T02:28:45;22.90;71.90
8939;DHT22;4504;48.810;9.172;2022-08-01T02:31:17;22.90;72.40
8939;DHT22;4504;48.810;9.172;2022-08-01T02:33:53;22.90;72.60
8939;DHT22;4504;48.810;9.172;2022-08-01T02:36:25;22.90;72.70
8939;DHT22;4504;48.810;9.172;2022-08-01T02:38:54;22.90;73.10
8939;DHT22;4504;48.810;9.172;2022-08-01T02:41:23;22.90;73.00
8939;DHT22;4504;48.810;9.172;2022-08-01T02:43:53;22.80;73.20
8939;DHT22;4504;48.810;9.172;2022-08-01T02:46:25;22.80;73.40
8939;DHT22;4504;48.810;9.172;2022-08-01T02:48:56;22.70;73.70
8939;DHT22;4504;48.810;9.172;2022-08-01T02:51:25;22.70;73.80
8939;DHT22;4504;48.810;9.172;2022-08-01T02:53:54;22.80;73.90
8939;DHT22;4504;48.810;9.172;2022-08-01T02:56:22;22.80;73.90
8939;DHT22;4504;48.810;9.172;2022-08-01T02:59:02;22.70;74.00
8939;DHT22;4504;48.810;9.172;2022-08-01T03:01:32;22.70;74.00
8939;DHT22;4504;48.810;9.172;2022-08-01T03:04:01;22.70;74.40
8939;DHT22;4504;48.810;9.172;2022-08-01T03:06:29;22.80;74.60
8939;DHT22;4504;48.810;9.172;2022-08-01T03:08:57;22.70;74.50
8939;DHT22;4504;48.810;9.172;2022-08-01T03:11:25;22.70;74.60
8939;DHT22;4504;48.810;9.172;2022-08-01T03:13:55;22.80;74.80
8939;DHT22;4504;48.810;9.172;2022-08-01T03:16:24;22.60;75.00
8939;DHT22;4504;48.810;9.172;2022-08-01T03:18:53;22.70;75.50
8939;DHT22;4504;48.810;9.172;2022-08-01T03:21:24;22.70;75.60
8939;DHT22;4504;48.810;9.172;2022-08-01T03:23:53;22.70;75.90
8939;DHT22;4504;48.810;9.172;2022-08-01T03:26:26;22.60;76.20
8939;DHT22;4504;48.810;9.172;2022-08-01T03:28:58;22.60;76.50
8939;DHT22;4504;48.810;9.172;2022-08-01T03:31:26;22.60;76.70
8939;DHT22;4504;48.810;9.172;2022-08-01T03:33:53;22.50;76.90
8939;DHT22;4504;48.810;9.172;2022-08-01T03:36:25;22.50;77.20
8939;DHT22;4504;48.810;9.172;2022-08-01T03:38:57;22.50;77.50
8939;DHT22;4504;48.810;9.172;2022-08-01T03:41:27;22.50;77.80
8939;DHT22;4504;48.810;9.172;2022-08-01T03:43:56;22.50;77.80
8939;DHT22;4504;48.810;9.172;2022-08-01T03:46:34;22.50;78.00
8939;DHT22;4504;48.810;9.172;2022-08-01T03:49:07;22.50;78.00
8939;DHT22;4504;48.810;9.172;2022-08-01T03:51:37;22.50;78.40
8939;DHT22;4504;48.810;9.172;2022-08-01T03:54:05;22.50;78.70
8939;DHT22;4504;48.810;9.172;2022-08-01T03:56:33;22.50;78.80
8939;DHT22;4504;48.810;9.172;2022-08-01T03:59:02;22.50;78.90
8939;DHT22;4504;48.810;9.172;2022-08-01T04:01:31;22.50;79.10
8939;DHT22;4504;48.810;9.172;2022-08-01T04:03:59;22.50;79.30
8939;DHT22;4504;48.810;9.172;2022-08-01T04:06:27;22.50;79.70
8939;DHT22;4504;48.810;9.172;2022-08-01T04:08:55;22.50;79.90
8939;DHT22;4504;48.810;9.172;2022-08-01T04:11:24;22.50;79.90
8939;DHT22;4504;48.810;9.172;2022-08-01T04:13:53;22.50;80.20
8939;DHT22;4504;48.810;9.172;2022-08-01T04:16:21;22.50;80.40
8939;DHT22;4504;48.810;9.172;2022-08-01T04:18:48;22.50;80.50
8939;DHT22;4504;48.810;9.172;2022-08-01T04:21:18;22.60;80.80
8939;DHT22;4504;48.810;9.172;2022-08-01T04:23:46;22.50;80.90
8939;DHT22;4504;48.810;9.172;2022-08-01T04:26:16;22.50;81.30
8939;DHT22;4504;48.810;9.172;2022-08-01T04:28:44;22.50;81.70
8939;DHT22;4504;48.810;9.172;2022-08-01T04:31:14;22.60;81.80
8939;DHT22;4504;48.810;9.172;2022-08-01T04:33:45;22.50;81.90
8939;DHT22;4504;48.810;9.172;2022-08-01T04:36:14;22.40;82.00
8939;DHT22;4504;48.810;9.172;2022-08-01T04:38:44;22.50;82.10
8939;DHT22;4504;48.810;9.172;2022-08-01T04:41:12;22.40;82.30
8939;DHT22;4504;48.810;9.172;2022-08-01T04:43:42;22.40;82.50
8939;DHT22;4504;48.810;9.172;2022-08-01T04:46:09;22.50;82.70
8939;DHT22;4504;48.810;9.172;2022-08-01T04:48:38;22.40;83.10
8939;DHT22;4504;48.810;9.172;2022-08-01T04:51:11;22.50;83.30
8939;DHT22;4504;48.810;9.172;2022-08-01T04:53:41;22.40;83.40
8939;DHT22;4504;48.810;9.172;2022-08-01T04:56:09;22.40;83.70
8939;DHT22;4504;48.810;9.172;2022-08-01T04:58:38;22.40;83.90
8939;DHT22;4504;48.810;9.172;2022-08-01T05:01:08;22.40;84.40
8939;DHT22;4504;48.810;9.172;2022-08-01T05:03:35;22.40;85.00
8939;DHT22;4504;48.810;9.172;2022-08-01T05:06:02;22.40;85.40
8939;DHT22;4504;48.810;9.172;2022-08-01T05:08:30;22.40;85.60
8939;DHT22;4504;48.810;9.172;2022-08-01T05:10:57;22.50;85.40
8939;DHT22;4504;48.810;9.172;2022-08-01T05:13:24;22.50;85.20
8939;DHT22;4504;48.810;9.172;2022-08-01T05:15:51;22.50;85.50
8939;DHT22;4504;48.810;9.172;2022-08-01T05:18:20;22.50;86.30
8939;DHT22;4504;48.810;9.172;2022-08-01T05:20:47;22.50;85.30
8939;DHT22;4504;48.810;9.172;2022-08-01T05:23:14;22.50;85.30
8939;DHT22;4504;48.810;9.172;2022-08-01T05:25:41;22.50;85.80
8939;DHT22;4504;48.810;9.172;2022-08-01T05:28:08;22.40;86.10
8939;DHT22;4504;48.810;9.172;2022-08-01T05:30:35;22.40;86.20
8939;DHT22;4504;48.810;9.172;2022-08-01T05:33:02;22.30;86.30
8939;DHT22;4504;48.810;9.172;2022-08-01T05:35:31;22.30;86.80
8939;DHT22;4504;48.810;9.172;2022-08-01T05:37:58;22.30;87.20
8939;DHT22;4504;48.810;9.172;2022-08-01T05:40:25;22.30;87.50
8939;DHT22;4504;48.810;9.172;2022-08-01T05:42:51;22.40;87.40
8939;DHT22;4504;48.810;9.172;2022-08-01T05:45:19;22.60;87.30
8939;DHT22;4504;48.810;9.172;2022-08-01T05:47:46;22.60;87.00
8939;DHT22;4504;48.810;9.172;2022-08-01T05:50:13;22.60;86.80
8939;DHT22;4504;48.810;9.172;2022-08-01T05:52:41;22.80;87.00
8939;DHT22;4504;48.810;9.172;2022-08-01T05:55:08;22.80;86.80
8939;DHT22;4504;48.810;9.172;2022-08-01T05:57:35;22.80;86.80
8939;DHT22;4504;48.810;9.172;2022-08-01T06:00:03;22.80;87.00
8939;DHT22;4504;48.810;9.172;2022-08-01T06:02:40;22.90;87.00
8939;DHT22;4504;48.810;9.172;2022-08-01T06:05:08;23.00;87.10
8939;DHT22;4504;48.810;9.172;2022-08-01T06:07:35;23.00;87.20
8939;DHT22;4504;48.810;9.172;2022-08-01T06:10:07;23.00;87.20
8939;DHT22;4504;48.810;9.172;2022-08-01T06:12:34;23.10;87.20
8939;DHT22;4504;48.810;9.172;2022-08-01T06:15:02;23.00;87.20
8939;DHT22;4504;48.810;9.172;2022-08-01T06:17:29;23.10;88.10
8939;DHT22;4504;48.810;9.172;2022-08-01T06:19:56;23.10;87.50
8939;DHT22;4504;48.810;9.172;2022-08-01T06:22:23;23.20;87.50
8939;DHT22;4504;48.810;9.172;2022-08-01T06:24:50;23.10;87.50
8939;DHT22;4504;48.810;9.172;2022-08-01T06:27:18;23.20;88.00
8939;DHT22;4504;48.810;9.172;2022-08-01T06:29:45;23.20;87.80
8939;DHT22;4504;48.810;9.172;2022-08-01T06:32:13;23.30;87.60
8939;DHT22;4504;48.810;9.172;2022-08-01T06:34:40;23.20;87.70
8939;DHT22;4504;48.810;9.172;2022-08-01T06:37:07;23.30;87.70
8939;DHT22;4504;48.810;9.172;2022-08-01T06:39:34;23.20;87.70
8939;DHT22;4504;48.810;9.172;2022-08-01T06:42:01;23.30;88.20
8939;DHT22;4504;48.810;9.172;2022-08-01T06:44:29;23.30;87.80
8939;DHT22;4504;48.810;9.172;2022-08-01T06:46:56;23.40;87.80
8939;DHT22;4504;48.810;9.172;2022-08-01T06:49:24;23.30;87.50
8939;DHT22;4504;48.810;9.172;2022-08-01T06:51:51;23.40;87.80
8939;DHT22;4504;48.810;9.172;2022-08-01T06:54:18;23.30;87.70
8939;DHT22;4504;48.810;9.172;2022-08-01T06:56:45;23.30;87.90
8939;DHT22;4504;48.810;9.172;2022-08-01T06:59:12;23.40;88.30
8939;DHT22;4504;48.810;9.172;2022-08-01T07:01:40;23.40;87.70
8939;DHT22;4504;48.810;9.172;2022-08-01T07:04:07;23.40;87.90
8939;DHT22;4504;48.810;9.172;2022-08-01T07:06:34;23.30;87.70
8939;DHT22;4504;48.810;9.172;2022-08-01T07:09:02;23.40;87.80
8939;DHT22;4504;48.810;9.172;2022-08-01T07:11:29;23.50;87.30
8939;DHT22;4504;48.810;9.172;2022-08-01T07:13:56;23.60;86.80
8939;DHT22;4504;48.810;9.172;2022-08-01T07:16:24;23.70;87.20
8939;DHT22;4504;48.810;9.172;2022-08-01T07:18:53;23.60;90.30
8939;DHT22;4504;48.810;9.172;2022-08-01T07:21:20;23.60;88.10
8939;DHT22;4504;48.810;9.172;2022-08-01T07:23:47;23.80;87.80
8939;DHT22;4504;48.810;9.172;2022-08-01T07:26:14;23.70;88.10
8939;DHT22;4504;48.810;9.172;2022-08-01T07:28:41;23.60;89.00
8939;DHT22;4504;48.810;9.172;2022-08-01T07:31:08;23.60;88.70
8939;DHT22;4504;48.810;9.172;2022-08-01T07:33:35;23.70;89.50
8939;DHT22;4504;48.810;9.172;2022-08-01T07:36:04;23.60;88.90
8939;DHT22;4504;48.810;9.172;2022-08-01T07:38:31;23.70;89.00
8939;DHT22;4504;48.810;9.172;2022-08-01T07:40:58;23.80;89.70
8939;DHT22;4504;48.810;9.172;2022-08-01T07:43:25;23.80;88.30
8939;DHT22;4504;48.810;9.172;2022-08-01T07:45:52;23.80;86.50
8939;DHT22;4504;48.810;9.172;2022-08-01T07:48:19;23.90;86.40
8939;DHT22;4504;48.810;9.172;2022-08-01T07:50:49;23.90;87.10
8939;DHT22;4504;48.810;9.172;2022-08-01T07:53:18;23.90;88.00
8939;DHT22;4504;48.810;9.172;2022-08-01T07:55:45;23.90;86.90
8939;DHT22;4504;48.810;9.172;2022-08-01T07:58:12;23.90;86.90
8939;DHT22;4504;48.810;9.172;2022-08-01T08:00:39;24.00;86.20
8939;DHT22;4504;48.810;9.172;2022-08-01T08:03:06;24.10;86.60
8939;DHT22;4504;48.810;9.172;2022-08-01T08:05:33;24.20;85.90
8939;DHT22;4504;48.810;9.172;2022-08-01T08:08:00;24.10;86.90
8939;DHT22;4504;48.810;9.172;2022-08-01T08:10:29;24.20;87.50
8939;DHT22;4504;48.810;9.172;2022-08-01T08:12:56;24.30;86.50
8939;DHT22;4504;48.810;9.172;2022-08-01T08:15:23;24.40;85.70
8939;DHT22;4504;48.810;9.172;2022-08-01T08:17:50;24.40;86.20
8939;DHT22;4504;48.810;9.172;2022-08-01T08:20:17;24.40;85.40
8939;DHT22;4504;48.810;9.172;2022-08-01T08:22:44;24.50;86.20
8939;DHT22;4504;48.810;9.172;2022-08-01T08:25:11;24.50;88.00
8939;DHT22;4504;48.810;9.172;2022-08-01T08:27:39;24.50;86.90
8939;DHT22;4504;48.810;9.172;2022-08-01T08:30:07;24.60;86.30
8939;DHT22;4504;48.810;9.172;2022-08-01T08:32:36;24.70;85.70
8939;DHT22;4504;48.810;9.172;2022-08-01T08:35:04;24.70;85.30
8939;DHT22;4504;48.810;9.172;2022-08-01T08:37:32;24.70;86.40
8939;DHT22;4504;48.810;9.172;2022-08-01T08:39:59;24.70;86.10
8939;DHT22;4504;48.810;9.172;2022-08-01T08:42:26;24.70;85.60
8939;DHT22;4504;48.810;9.172;2022-08-01T08:44:57;24.70;85.00
8939;DHT22;4504;48.810;9.172;2022-08-01T08:47:25;24.80;84.80
8939;DHT22;4504;48.810;9.172;2022-08-01T08:49:55;24.80;85.80
8939;DHT22;4504;48.810;9.172;2022-08-01T08:52:23;24.90;85.10
8939;DHT22;4504;48.810;9.172;2022-08-01T08:54:51;24.80;84.90
8939;DHT22;4504;48.810;9.172;2022-08-01T08:57:19;24.80;83.80
8939;DHT22;4504;48.810;9.172;2022-08-01T08:59:47;24.70;83.70
8939;DHT22;4504;48.810;9.172;2022-08-01T09:02:18;24.80;85.60
8939;DHT22;4504;48.810;9.172;2022-08-01T09:04:47;24.80;84.40
8939;DHT22;4504;48.810;9.172;2022-08-01T09:07:14;24.90;83.70
8939;DHT22;4504;48.810;9.172;2022-08-01T09:09:41;24.90;84.00
8939;DHT22;4504;48.810;9.172;2022-08-01T09:12:08;24.80;83.90
8939;DHT22;4504;48.810;9.172;2022-08-01T09:14:44;25.00;83.30
8939;DHT22;4504;48.810;9.172;2022-08-01T09:17:11;25.00;84.50
8939;DHT22;4504;48.810;9.172;2022-08-01T09:19:41;25.00;83.20
8939;DHT22;4504;48.810;9.172;2022-08-01T09:22:10;25.00;82.60
8939;DHT22;4504;48.810;9.172;2022-08-01T09:24:38;25.00;82.60
8939;DHT22;4504;48.810;9.172;2022-08-01T09:27:16;25.10;82.20
8939;DHT22;4504;48.810;9.172;2022-08-01T09:29:44;25.20;81.70
8939;DHT22;4504;48.810;9.172;2022-08-01T09:32:11;25.30;82.20
8939;DHT22;4504;48.810;9.172;2022-08-01T09:34:40;25.20;81.30
8939;DHT22;4504;48.810;9.172;2022-08-01T09:37:07;25.30;81.40
8939;DHT22;4504;48.810;9.172;2022-08-01T09:39:35;25.20;81.70
8939;DHT22;4504;48.810;9.172;2022-08-01T09:42:20;25.20;82.00
8939;DHT22;4504;48.810;9.172;2022-08-01T09:44:47;25.30;80.80
8939;DHT22;4504;48.810;9.172;2022-08-01T09:47:15;25.30;80.90
8939;DHT22;4504;48.810;9.172;2022-08-01T09:49:44;25.30;80.90
8939;DHT22;4504;48.810;9.172;2022-08-01T09:52:15;25.50;81.40
8939;DHT22;4504;48.810;9.172;2022-08-01T09:54:43;25.50;80.50
8939;DHT22;4504;48.810;9.172;2022-08-01T09:57:13;25.50;81.20
8939;DHT22;4504;48.810;9.172;2022-08-01T09:59:42;25.50;80.90
8939;DHT22;4504;48.810;9.172;2022-08-01T10:02:10;25.50;80.10
8939;DHT22;4504;48.810;9.172;2022-08-01T10:04:51;25.60;80.20
8939;DHT22;4504;48.810;9.172;2022-08-01T10:07:19;25.50;80.50
8939;DHT22;4504;48.810;9.172;2022-08-01T10:09:46;25.60;80.40
8939;DHT22;4504;48.810;9.172;2022-08-01T10:12:14;25.60;79.50
8939;DHT22;4504;48.810;9.172;2022-08-01T10:14:42;25.70;79.00
8939;DHT22;4504;48.810;9.172;2022-08-01T10:17:12;25.70;79.60
8939;DHT22;4504;48.810;9.172;2022-08-01T10:19:41;25.70;79.40
8939;DHT22;4504;48.810;9.172;2022-08-01T10:22:12;25.70;78.30
8939;DHT22;4504;48.810;9.172;2022-08-01T10:24:44;25.70;76.70
8939;DHT22;4504;48.810;9.172;2022-08-01T10:27:14;25.90;77.30
8939;DHT22;4504;48.810;9.172;2022-08-01T10:29:46;25.90;77.00
8939;DHT22;4504;48.810;9.172;2022-08-01T10:32:13;26.00;76.40
8939;DHT22;4504;48.810;9.172;2022-08-01T10:34:40;25.90;76.40
8939;DHT22;4504;48.810;9.172;2022-08-01T10:37:07;26.10;75.90
8939;DHT22;4504;48.810;9.172;2022-08-01T10:39:37;26.30;75.70
8939;DHT22;4504;48.810;9.172;2022-08-01T10:42:06;26.50;75.00
8939;DHT22;4504;48.810;9.172;2022-08-01T10:44:36;26.70;74.20
8939;DHT22;4504;48.810;9.172;2022-08-01T10:47:08;26.70;74.30
8939;DHT22;4504;48.810;9.172;2022-08-01T10:49:41;26.60;73.20
8939;DHT22;4504;48.810;9.172;2022-08-01T10:52:14;26.60;72.80
8939;DHT22;4504;48.810;9.172;2022-08-01T10:54:43;26.50;72.80
8939;DHT22;4504;48.810;9.172;2022-08-01T10:57:11;26.50;73.70
8939;DHT22;4504;48.810;9.172;2022-08-01T10:59:48;26.50;73.80
8939;DHT22;4504;48.810;9.172;2022-08-01T11:02:26;26.40;73.40
8939;DHT22;4504;48.810;9.172;2022-08-01T11:04:56;26.50;73.00
8939;DHT22;4504;48.810;9.172;2022-08-01T11:07:37;26.50;73.00
8939;DHT22;4504;48.810;9.172;2022-08-01T11:10:21;26.50;72.40
8939;DHT22;4504;48.810;9.172;2022-08-01T11:12:49;26.50;72.50
8939;DHT22;4504;48.810;9.172;2022-08-01T11:15:21;26.50;72.70
8939;DHT22;4504;48.810;9.172;2022-08-01T11:17:52;26.40;72.00
8939;DHT22;4504;48.810;9.172;2022-08-01T11:20:20;26.50;71.30
8939;DHT22;4504;48.810;9.172;2022-08-01T11:26:21;26.50;70.90
8939;DHT22;4504;48.810;9.172;2022-08-01T11:29:17;26.50;70.90
8939;DHT22;4504;48.810;9.172;2022-08-01T11:31:44;26.60;72.10
8939;DHT22;4504;48.810;9.172;2022-08-01T11:34:11;26.60;70.40
8939;DHT22;4504;48.810;9.172;2022-08-01T11:36:38;26.60;71.00
8939;DHT22;4504;48.810;9.172;2022-08-01T11:39:17;26.50;70.90
8939;DHT22;4504;48.810;9.172;2022-08-01T11:41:47;26.50;71.30
8939;DHT22;4504;48.810;9.172;2022-08-01T11:44:16;26.50;71.30
8939;DHT22;4504;48.810;9.172;2022-08-01T11:46:49;26.60;70.80
8939;DHT22;4504;48.810;9.172;2022-08-01T11:52:25;26.80;69.70
8939;DHT22;4504;48.810;9.172;2022-08-01T11:54:54;27.00;69.30
8939;DHT22;4504;48.810;9.172;2022-08-01T11:57:24;27.00;68.50
8939;DHT22;4504;48.810;9.172;2022-08-01T11:59:53;27.10;68.80
8939;DHT22;4504;48.810;9.172;2022-08-01T12:02:22;27.10;68.80
8939;DHT22;4504;48.810;9.172;2022-08-01T12:04:53;27.20;68.00
8939;DHT22;4504;48.810;9.172;2022-08-01T12:07:20;27.20;68.00
8939;DHT22;4504;48.810;9.172;2022-08-01T12:09:48;27.30;67.00
8939;DHT22;4504;48.810;9.172;2022-08-01T12:12:24;27.40;66.40
8939;DHT22;4504;48.810;9.172;2022-08-01T12:14:55;27.50;66.20
8939;DHT22;4504;48.810;9.172;2022-08-01T12:17:37;27.60;65.90
8939;DHT22;4504;48.810;9.172;2022-08-01T12:20:06;27.70;65.70
8939;DHT22;4504;48.810;9.172;2022-08-01T12:22:34;27.90;66.60
8939;DHT22;4504;48.810;9.172;2022-08-01T12:25:08;28.00;64.60
8939;DHT22;4504;48.810;9.172;2022-08-01T12:27:39;28.20;64.80
8939;DHT22;4504;48.810;9.172;2022-08-01T12:30:07;28.20;64.50
8939;DHT22;4504;48.810;9.172;2022-08-01T12:32:36;28.30;65.10
8939;DHT22;4504;48.810;9.172;2022-08-01T12:35:05;28.30;64.20
8939;DHT22;4504;48.810;9.172;2022-08-01T12:37:35;28.40;63.50
8939;DHT22;4504;48.810;9.172;2022-08-01T12:40:09;28.40;63.50
8939;DHT22;4504;48.810;9.172;2022-08-01T12:42:38;28.40;63.30
8939;DHT22;4504;48.810;9.172;2022-08-01T12:45:08;28.50;63.60
8939;DHT22;4504;48.810;9.172;2022-08-01T12:47:36;28.70;63.30
8939;DHT22;4504;48.810;9.172;2022-08-01T12:50:05;28.90;63.90
8939;DHT22;4504;48.810;9.172;2022-08-01T12:52:33;29.10;62.90
8939;DHT22;4504;48.810;9.172;2022-08-01T12:55:06;29.20;61.80
8939;DHT22;4504;48.810;9.172;2022-08-01T12:57:38;29.00;61.90
8939;DHT22;4504;48.810;9.172;2022-08-01T13:00:09;28.70;60.90
8939;DHT22;4504;48.810;9.172;2022-08-01T13:02:38;28.70;61.40
8939;DHT22;4504;48.810;9.172;2022-08-01T13:05:06;28.60;61.60
8939;DHT22;4504;48.810;9.172;2022-08-01T13:07:39;28.60;62.00
8939;DHT22;4504;48.810;9.172;2022-08-01T13:10:07;28.60;61.70
8939;DHT22;4504;48.810;9.172;2022-08-01T13:12:35;28.50;62.20
8939;DHT22;4504;48.810;9.172;2022-08-01T13:15:19;28.50;63.30
8939;DHT22;4504;48.810;9.172;2022-08-01T13:17:47;28.40;63.20
8939;DHT22;4504;48.810;9.172;2022-08-01T13:20:30;28.40;63.20
8939;DHT22;4504;48.810;9.172;2022-08-01T13:23:12;28.50;63.10
8939;DHT22;4504;48.810;9.172;2022-08-01T13:25:50;28.60;63.10
8939;DHT22;4504;48.810;9.172;2022-08-01T13:28:19;28.60;61.40
8939;DHT22;4504;48.810;9.172;2022-08-01T13:30:56;28.70;61.80
8939;DHT22;4504;48.810;9.172;2022-08-01T13:33:24;28.80;61.10
8939;DHT22;4504;48.810;9.172;2022-08-01T13:35:52;28.70;61.40
8939;DHT22;4504;48.810;9.172;2022-08-01T13:38:19;28.80;60.80
8939;DHT22;4504;48.810;9.172;2022-08-01T13:41:08;28.70;60.60
8939;DHT22;4504;48.810;9.172;2022-08-01T13:43:35;28.70;61.00
8939;DHT22;4504;48.810;9.172;2022-08-01T13:46:03;28.60;61.10
8939;DHT22;4504;48.810;9.172;2022-08-01T13:48:31;28.60;60.40
8939;DHT22;4504;48.810;9.172;2022-08-01T13:50:59;28.60;61.00
8939;DHT22;4504;48.810;9.172;2022-08-01T13:53:27;28.70;60.90
8939;DHT22;4504;48.810;9.172;2022-08-01T13:55:54;28.70;61.20
8939;DHT22;4504;48.810;9.172;2022-08-01T13:58:21;28.60;61.70
8939;DHT22;4504;48.810;9.172;2022-08-01T14:00:48;28.70;61.70
8939;DHT22;4504;48.810;9.172;2022-08-01T14:03:17;28.80;61.40
8939;DHT22;4504;48.810;9.172;2022-08-01T14:05:44;28.90;61.70
8939;DHT22;4504;48.810;9.172;2022-08-01T14:08:11;29.00;60.40
8939;DHT22;4504;48.810;9.172;2022-08-01T14:10:38;29.20;59.90
8939;DHT22;4504;48.810;9.172;2022-08-01T14:13:05;29.30;59.80
8939;DHT22;4504;48.810;9.172;2022-08-01T14:15:33;29.20;59.50
8939;DHT22;4504;48.810;9.172;2022-08-01T14:18:00;29.40;60.20
8939;DHT22;4504;48.810;9.172;2022-08-01T14:20:28;29.50;59.10
8939;DHT22;4504;48.810;9.172;2022-08-01T14:22:55;29.50;59.40
8939;DHT22;4504;48.810;9.172;2022-08-01T14:25:22;29.40;58.50
8939;DHT22;4504;48.810;9.172;2022-08-01T14:27:49;29.40;58.90
8939;DHT22;4504;48.810;9.172;2022-08-01T14:30:16;29.20;58.80
8939;DHT22;4504;48.810;9.172;2022-08-01T14:32:43;29.00;58.90
8939;DHT22;4504;48.810;9.172;2022-08-01T14:35:10;29.10;59.50
8939;DHT22;4504;48.810;9.172;2022-08-01T14:37:38;29.20;59.50
8939;DHT22;4504;48.810;9.172;2022-08-01T14:40:06;29.20;58.90
8939;DHT22;4504;48.810;9.172;2022-08-01T14:42:35;29.10;59.10
8939;DHT22;4504;48.810;9.172;2022-08-01T14:45:03;29.10;59.00
8939;DHT22;4504;48.810;9.172;2022-08-01T14:47:34;29.20;59.10
8939;DHT22;4504;48.810;9.172;2022-08-01T14:50:03;29.20;59.10
8939;DHT22;4504;48.810;9.172;2022-08-01T14:52:30;29.20;59.40
8939;DHT22;4504;48.810;9.172;2022-08-01T14:54:58;29.30;59.30
8939;DHT22;4504;48.810;9.172;2022-08-01T14:57:25;29.40;58.60
8939;DHT22;4504;48.810;9.172;2022-08-01T14:59:53;29.20;58.60
8939;DHT22;4504;48.810;9.172;2022-08-01T15:02:20;29.20;58.70
8939;DHT22;4504;48.810;9.172;2022-08-01T15:04:50;29.30;59.10
8939;DHT22;4504;48.810;9.172;2022-08-01T15:07:18;29.40;58.90
8939;DHT22;4504;48.810;9.172;2022-08-01T15:09:45;29.50;58.80
8939;DHT22;4504;48.810;9.172;2022-08-01T15:12:14;29.60;58.00
8939;DHT22;4504;48.810;9.172;2022-08-01T15:14:41;29.60;57.70
8939;DHT22;4504;48.810;9.172;2022-08-01T15:17:18;29.40;57.60
8939;DHT22;4504;48.810;9.172;2022-08-01T15:19:45;29.20;58.10
8939;DHT22;4504;48.810;9.172;2022-08-01T15:22:13;29.20;58.20
8939;DHT22;4504;48.810;9.172;2022-08-01T15:24:40;29.30;58.40
8939;DHT22;4504;48.810;9.172;2022-08-01T15:27:08;29.30;58.10
8939;DHT22;4504;48.810;9.172;2022-08-01T15:29:37;29.40;57.80
8939;DHT22;4504;48.810;9.172;2022-08-01T15:32:05;29.40;57.60
8939;DHT22;4504;48.810;9.172;2022-08-01T15:34:33;29.40;57.40
8939;DHT22;4504;48.810;9.172;2022-08-01T15:37:00;29.30;57.30
8939;DHT22;4504;48.810;9.172;2022-08-01T15:39:28;29.30;56.90
8939;DHT22;4504;48.810;9.172;2022-08-01T15:41:58;29.40;57.00
8939;DHT22;4504;48.810;9.172;2022-08-01T15:44:25;29.40;56.30
8939;DHT22;4504;48.810;9.172;2022-08-01T15:46:54;29.30;56.10
8939;DHT22;4504;48.810;9.172;2022-08-01T15:49:21;29.40;56.90
8939;DHT22;4504;48.810;9.172;2022-08-01T15:51:49;29.40;56.20
8939;DHT22;4504;48.810;9.172;2022-08-01T15:54:17;29.40;56.40
8939;DHT22;4504;48.810;9.172;2022-08-01T15:56:44;29.50;56.30
8939;DHT22;4504;48.810;9.172;2022-08-01T15:59:11;29.30;56.40
8939;DHT22;4504;48.810;9.172;2022-08-01T16:01:38;29.20;56.30
8939;DHT22;4504;48.810;9.172;2022-08-01T16:04:07;29.20;56.70
8939;DHT22;4504;48.810;9.172;2022-08-01T16:06:34;29.20;56.80
8939;DHT22;4504;48.810;9.172;2022-08-01T16:09:02;29.00;56.70
8939;DHT22;4504;48.810;9.172;2022-08-01T16:11:32;28.90;57.70
8939;DHT22;4504;48.810;9.172;2022-08-01T16:13:59;29.00;57.30
8939;DHT22;4504;48.810;9.172;2022-08-01T16:16:26;29.10;57.70
8939;DHT22;4504;48.810;9.172;2022-08-01T16:18:53;29.00;57.40
8939;DHT22;4504;48.810;9.172;2022-08-01T16:21:22;29.10;57.20